sensor_id;sensor_type;location;lat;lon;timestamp;temperature;humidity
40287;DHT22;25998;46.604;13.610;2022-12-10T00:00:09;2.40;99.90
40287;DHT22;25998;46.604;13.610;2022-12-10T00:03:37;2.30;99.90
40287;DHT22;25998;46.604;13.610;2022-12-10T00:07:11;2.30;99.90
40287;DHT22;25998;46.604;13.610;2022-12-10T00:10:33;2.40;99.90
40287;DHT22;25998;46.604;13.610;2022-12-10T00:13:45;2.30;99.90
40287;DHT22;25998;46.604;13.610;2022-12-10T00:17:02;2.30;99.90
40287;DHT22;25998;46.604;13.610;2022-12-10T00:20:37;2.40;99.90
40287;DHT22;25998;46.604;13.610;2022-12-10T00:23:57;2.40;99.90
40287;DHT22;25998;46.604;13.610;2022-12-10T00:27:23;2.50;99.90
40287;DHT22;25998;46.604;13.610;2022-12-10T00:30:34;2.40;99.90
40287;DHT22;25998;46.604;13.610;2022-12-10T00:33:46;2.30;99.90
40287;DHT22;25998;46.604;13.610;2022-12-10T00:37:02;2.40;99.90
40287;DHT22;25998;46.604;13.610;2022-12-10T00:40:34;2.50;99.90
40287;DHT22;25998;46.604;13.610;2022-12-10T00:44:11;2.60;99.90
40287;DHT22;25998;46.604;13.610;2022-12-10T00:47:40;2.50;99.90
40287;DHT22;25998;46.604;13.610;2022-12-10T00:51:20;2.60;99.90
40287;DHT22;25998;46.604;13.610;2022-12-10T00:54:42;2.60;99.90
40287;DHT22;25998;46.604;13.610;2022-12-10T00:58:00;2.70;99.90
40287;DHT22;25998;46.604;13.610;2022-12-10T01:04:30;2.50;99.90
40287;DHT22;25998;46.604;13.610;2022-12-10T01:07:44;2.40;99.90
40287;DHT22;25998;46.604;13.610;2022-12-10T01:10:59;2.50;99.90
40287;DHT22;25998;46.604;13.610;2022-12-10T01:14:26;2.60;99.90
40287;DHT22;25998;46.604;13.610;2022-12-10T01:17:37;2.60;99.90
40287;DHT22;25998;46.604;13.610;2022-12-10T01:20:53;2.60;99.90
40287;DHT22;25998;46.604;13.610;2022-12-10T01:24:22;2.50;99.90
40287;DHT22;25998;46.604;13.610;2022-12-10T01:27:45;2.60;99.90
40287;DHT22;25998;46.604;13.610;2022-12-10T01:31:21;2.50;99.90
40287;DHT22;25998;46.604;13.610;2022-12-10T01:38:29;2.50;99.90
40287;DHT22;25998;46.604;13.610;2022-12-10T01:41:49;2.50;99.90
40287;DHT22;25998;46.604;13.610;2022-12-10T01:45:10;2.60;99.90
40287;DHT22;25998;46.604;13.610;2022-12-10T01:48:45;2.60;99.90
40287;DHT22;25998;46.604;13.610;2022-12-10T01:52:21;2.60;99.90
40287;DHT22;25998;46.604;13.610;2022-12-10T01:56:03;2.50;99.90
40287;DHT22;25998;46.604;13.610;2022-12-10T01:59:42;2.50;99.90
40287;DHT22;25998;46.604;13.610;2022-12-10T02:03:09;2.50;99.90
40287;DHT22;25998;46.604;13.610;2022-12-10T02:07:04;2.70;99.90
40287;DHT22;25998;46.604;13.610;2022-12-10T02:14:15;2.70;99.90
40287;DHT22;25998;46.604;13.610;2022-12-10T02:17:52;2.70;99.90
40287;DHT22;25998;46.604;13.610;2022-12-10T02:21:37;2.70;99.90
40287;DHT22;25998;46.604;13.610;2022-12-10T02:25:07;2.70;99.90
40287;DHT22;25998;46.604;13.610;2022-12-10T02:32:19;2.60;99.90
40287;DHT22;25998;46.604;13.610;2022-12-10T02:35:44;2.50;99.90
40287;DHT22;25998;46.604;13.610;2022-12-10T02:39:02;2.40;99.90
40287;DHT22;25998;46.604;13.610;2022-12-10T02:42:17;2.40;99.90
40287;DHT22;25998;46.604;13.610;2022-12-10T02:45:39;2.50;99.90
40287;DHT22;25998;46.604;13.610;2022-12-10T02:49:12;2.70;99.90
40287;DHT22;25998;46.604;13.610;2022-12-10T02:52:40;2.70;99.90
40287;DHT22;25998;46.604;13.610;2022-12-10T03:03:30;2.60;99.90
40287;DHT22;25998;46.604;13.610;2022-12-10T03:07:18;2.60;99.90
40287;DHT22;25998;46.604;13.610;2022-12-10T03:10:34;2.70;99.90
40287;DHT22;25998;46.604;13.610;2022-12-10T03:14:21;2.70;99.90
40287;DHT22;25998;46.604;13.610;2022-12-10T03:17:40;2.70;99.90
40287;DHT22;25998;46.604;13.610;2022-12-10T03:21:05;2.60;99.90
40287;DHT22;25998;46.604;13.610;2022-12-10T03:24:20;2.60;99.90
40287;DHT22;25998;46.604;13.610;2022-12-10T03:27:34;2.70;99.90
40287;DHT22;25998;46.604;13.610;2022-12-10T03:30:50;2.70;99.90
40287;DHT22;25998;46.604;13.610;2022-12-10T03:34:12;2.70;99.90
40287;DHT22;25998;46.604;13.610;2022-12-10T03:37:24;2.70;99.90
40287;DHT22;25998;46.604;13.610;2022-12-10T03:40:41;2.60;99.90
40287;DHT22;25998;46.604;13.610;2022-12-10T03:43:57;2.70;99.90
40287;DHT22;25998;46.604;13.610;2022-12-10T03:47:15;2.70;99.90
40287;DHT22;25998;46.604;13.610;2022-12-10T03:50:29;2.70;99.90
40287;DHT22;25998;46.604;13.610;2022-12-10T03:53:43;2.70;99.90
40287;DHT22;25998;46.604;13.610;2022-12-10T03:56:54;2.70;99.90
40287;DHT22;25998;46.604;13.610;2022-12-10T04:00:14;2.70;99.90
40287;DHT22;25998;46.604;13.610;2022-12-10T04:03:27;2.70;99.90
40287;DHT22;25998;46.604;13.610;2022-12-10T04:06:40;2.60;99.90
40287;DHT22;25998;46.604;13.610;2022-12-10T04:10:11;2.70;99.90
40287;DHT22;25998;46.604;13.610;2022-12-10T04:13:32;2.60;99.90
40287;DHT22;25998;46.604;13.610;2022-12-10T04:17:07;2.60;99.90
40287;DHT22;25998;46.604;13.610;2022-12-10T04:20:21;2.60;99.90
40287;DHT22;25998;46.604;13.610;2022-12-10T04:23:53;2.60;99.90
40287;DHT22;25998;46.604;13.610;2022-12-10T04:27:30;2.50;99.90
40287;DHT22;25998;46.604;13.610;2022-12-10T04:30:46;2.50;99.90
40287;DHT22;25998;46.604;13.610;2022-12-10T04:34:10;2.50;99.90
40287;DHT22;25998;46.604;13.610;2022-12-10T04:37:33;2.40;99.90
40287;DHT22;25998;46.604;13.610;2022-12-10T04:40:54;2.30;99.90
40287;DHT22;25998;46.604;13.610;2022-12-10T04:44:15;2.50;99.90
40287;DHT22;25998;46.604;13.610;2022-12-10T04:47:29;2.50;99.90
40287;DHT22;25998;46.604;13.610;2022-12-10T04:50:42;2.60;99.90
40287;DHT22;25998;46.604;13.610;2022-12-10T04:53:59;2.50;99.90
40287;DHT22;25998;46.604;13.610;2022-12-10T04:57:13;2.60;99.90
40287;DHT22;25998;46.604;13.610;2022-12-10T05:00:24;2.50;99.90
40287;DHT22;25998;46.604;13.610;2022-12-10T05:03:36;2.40;99.90
40287;DHT22;25998;46.604;13.610;2022-12-10T05:06:50;2.30;99.90
40287;DHT22;25998;46.604;13.610;2022-12-10T05:10:04;2.20;99.90
40287;DHT22;25998;46.604;13.610;2022-12-10T05:13:29;2.30;99.90
40287;DHT22;25998;46.604;13.610;2022-12-10T05:16:43;2.30;99.90
40287;DHT22;25998;46.604;13.610;2022-12-10T05:19:57;2.30;99.90
40287;DHT22;25998;46.604;13.610;2022-12-10T05:23:16;2.40;99.90
40287;DHT22;25998;46.604;13.610;2022-12-10T05:26:42;2.40;99.90
40287;DHT22;25998;46.604;13.610;2022-12-10T05:30:12;2.40;99.90
40287;DHT22;25998;46.604;13.610;2022-12-10T05:33:23;2.40;99.90
40287;DHT22;25998;46.604;13.610;2022-12-10T05:36:37;2.50;99.90
40287;DHT22;25998;46.604;13.610;2022-12-10T05:39:48;2.40;99.90
40287;DHT22;25998;46.604;13.610;2022-12-10T05:43:04;2.40;99.90
40287;DHT22;25998;46.604;13.610;2022-12-10T05:46:33;2.50;99.90
40287;DHT22;25998;46.604;13.610;2022-12-10T05:49:48;2.50;99.90
40287;DHT22;25998;46.604;13.610;2022-12-10T05:53:07;2.40;99.90
40287;DHT22;25998;46.604;13.610;2022-12-10T05:56:21;2.40;99.90
40287;DHT22;25998;46.604;13.610;2022-12-10T05:59:37;2.30;99.90
40287;DHT22;25998;46.604;13.610;2022-12-10T06:02:51;2.20;99.90
40287;DHT22;25998;46.604;13.610;2022-12-10T06:06:11;2.20;99.90
40287;DHT22;25998;46.604;13.610;2022-12-10T06:09:41;2.40;99.90
40287;DHT22;25998;46.604;13.610;2022-12-10T06:12:55;2.40;99.90
40287;DHT22;25998;46.604;13.610;2022-12-10T06:16:31;2.40;99.90
40287;DHT22;25998;46.604;13.610;2022-12-10T06:19:44;2.30;99.90
40287;DHT22;25998;46.604;13.610;2022-12-10T06:22:58;2.40;99.90
40287;DHT22;25998;46.604;13.610;2022-12-10T06:26:20;2.30;99.90
40287;DHT22;25998;46.604;13.610;2022-12-10T06:29:38;2.30;99.90
40287;DHT22;25998;46.604;13.610;2022-12-10T06:32:54;2.30;99.90
40287;DHT22;25998;46.604;13.610;2022-12-10T06:36:11;2.30;99.90
40287;DHT22;25998;46.604;13.610;2022-12-10T06:39:37;2.30;99.90
40287;DHT22;25998;46.604;13.610;2022-12-10T06:42:51;2.30;99.90
40287;DHT22;25998;46.604;13.610;2022-12-10T06:46:06;2.30;99.90
40287;DHT22;25998;46.604;13.610;2022-12-10T06:49:21;2.30;99.90
40287;DHT22;25998;46.604;13.610;2022-12-10T06:52:32;2.30;99.90
40287;DHT22;25998;46.604;13.610;2022-12-10T06:55:48;2.20;99.90
40287;DHT22;25998;46.604;13.610;2022-12-10T06:59:19;2.20;99.90
40287;DHT22;25998;46.604;13.610;2022-12-10T07:02:38;2.50;99.90
40287;DHT22;25998;46.604;13.610;2022-12-10T07:05:57;2.50;99.90
40287;DHT22;25998;46.604;13.610;2022-12-10T07:09:11;2.50;99.90
40287;DHT22;25998;46.604;13.610;2022-12-10T07:12:28;2.40;99.90
40287;DHT22;25998;46.604;13.610;2022-12-10T07:15:47;2.30;99.90
40287;DHT22;25998;46.604;13.610;2022-12-10T07:19:10;2.10;99.90
40287;DHT22;25998;46.604;13.610;2022-12-10T07:22:45;2.10;99.90
40287;DHT22;25998;46.604;13.610;2022-12-10T07:26:01;2.10;99.90
40287;DHT22;25998;46.604;13.610;2022-12-10T07:29:25;2.10;99.90
40287;DHT22;25998;46.604;13.610;2022-12-10T07:32:39;2.20;99.90
40287;DHT22;25998;46.604;13.610;2022-12-10T07:36:02;2.20;99.90
40287;DHT22;25998;46.604;13.610;2022-12-10T07:39:24;2.30;99.90
40287;DHT22;25998;46.604;13.610;2022-12-10T07:42:37;2.40;99.90
40287;DHT22;25998;46.604;13.610;2022-12-10T07:45:48;2.40;99.90
40287;DHT22;25998;46.604;13.610;2022-12-10T07:49:20;2.40;99.90
40287;DHT22;25998;46.604;13.610;2022-12-10T07:52:37;2.30;99.90
40287;DHT22;25998;46.604;13.610;2022-12-10T07:55:51;2.40;99.90
40287;DHT22;25998;46.604;13.610;2022-12-10T07:59:07;2.50;99.90
40287;DHT22;25998;46.604;13.610;2022-12-10T08:02:20;2.50;99.90
40287;DHT22;25998;46.604;13.610;2022-12-10T08:05:31;2.40;99.90
40287;DHT22;25998;46.604;13.610;2022-12-10T08:08:44;2.40;99.90
40287;DHT22;25998;46.604;13.610;2022-12-10T08:12:00;2.30;99.90
40287;DHT22;25998;46.604;13.610;2022-12-10T08:15:17;2.30;99.90
40287;DHT22;25998;46.604;13.610;2022-12-10T08:18:28;2.50;99.90
40287;DHT22;25998;46.604;13.610;2022-12-10T08:21:42;2.50;99.90
40287;DHT22;25998;46.604;13.610;2022-12-10T08:24:53;2.60;99.90
40287;DHT22;25998;46.604;13.610;2022-12-10T08:28:15;2.60;99.90
40287;DHT22;25998;46.604;13.610;2022-12-10T08:31:32;2.50;99.90
40287;DHT22;25998;46.604;13.610;2022-12-10T08:34:52;2.50;99.90
40287;DHT22;25998;46.604;13.610;2022-12-10T08:38:04;2.60;99.90
40287;DHT22;25998;46.604;13.610;2022-12-10T08:41:26;2.60;99.90
40287;DHT22;25998;46.604;13.610;2022-12-10T08:44:57;2.60;99.90
40287;DHT22;25998;46.604;13.610;2022-12-10T08:48:08;2.60;99.90
40287;DHT22;25998;46.604;13.610;2022-12-10T08:51:20;2.60;99.90
40287;DHT22;25998;46.604;13.610;2022-12-10T08:54:31;2.60;99.90
40287;DHT22;25998;46.604;13.610;2022-12-10T08:57:50;2.70;99.90
40287;DHT22;25998;46.604;13.610;2022-12-10T09:01:14;2.80;99.90
40287;DHT22;25998;46.604;13.610;2022-12-10T09:04:31;2.80;99.90
40287;DHT22;25998;46.604;13.610;2022-12-10T09:07:46;2.80;99.90
40287;DHT22;25998;46.604;13.610;2022-12-10T09:11:05;2.80;99.90
40287;DHT22;25998;46.604;13.610;2022-12-10T09:14:17;2.70;99.90
40287;DHT22;25998;46.604;13.610;2022-12-10T09:17:30;2.70;99.90
40287;DHT22;25998;46.604;13.610;2022-12-10T09:20:56;2.80;99.90
40287;DHT22;25998;46.604;13.610;2022-12-10T09:24:10;2.90;99.90
40287;DHT22;25998;46.604;13.610;2022-12-10T09:27:21;3.00;99.90
40287;DHT22;25998;46.604;13.610;2022-12-10T09:30:32;3.00;99.90
40287;DHT22;25998;46.604;13.610;2022-12-10T09:33:44;3.00;99.90
40287;DHT22;25998;46.604;13.610;2022-12-10T09:37:00;3.00;99.90
40287;DHT22;25998;46.604;13.610;2022-12-10T09:40:16;3.00;99.90
40287;DHT22;25998;46.604;13.610;2022-12-10T09:43:55;3.00;99.90
40287;DHT22;25998;46.604;13.610;2022-12-10T09:47:11;3.00;99.90
40287;DHT22;25998;46.604;13.610;2022-12-10T09:50:44;2.90;99.90
40287;DHT22;25998;46.604;13.610;2022-12-10T09:57:51;2.80;99.90
40287;DHT22;25998;46.604;13.610;2022-12-10T10:01:09;2.80;99.90
40287;DHT22;25998;46.604;13.610;2022-12-10T10:04:39;2.90;99.90
40287;DHT22;25998;46.604;13.610;2022-12-10T10:08:04;2.90;99.90
40287;DHT22;25998;46.604;13.610;2022-12-10T10:11:23;2.90;99.90
40287;DHT22;25998;46.604;13.610;2022-12-10T10:14:34;2.90;99.90
40287;DHT22;25998;46.604;13.610;2022-12-10T10:17:48;3.00;99.90
40287;DHT22;25998;46.604;13.610;2022-12-10T10:21:11;3.00;99.90
40287;DHT22;25998;46.604;13.610;2022-12-10T10:24:39;2.90;99.90
40287;DHT22;25998;46.604;13.610;2022-12-10T10:27:55;2.90;99.90
40287;DHT22;25998;46.604;13.610;2022-12-10T10:31:20;2.90;99.90
40287;DHT22;25998;46.604;13.610;2022-12-10T10:34:42;3.00;99.90
40287;DHT22;25998;46.604;13.610;2022-12-10T10:38:07;3.10;99.90
40287;DHT22;25998;46.604;13.610;2022-12-10T10:41:18;3.10;99.90
40287;DHT22;25998;46.604;13.610;2022-12-10T10:44:35;3.30;99.90
40287;DHT22;25998;46.604;13.610;2022-12-10T10:48:10;3.30;99.90
40287;DHT22;25998;46.604;13.610;2022-12-10T10:51:22;3.20;99.90
40287;DHT22;25998;46.604;13.610;2022-12-10T10:54:44;3.10;99.90
40287;DHT22;25998;46.604;13.610;2022-12-10T10:58:02;3.00;99.90
40287;DHT22;25998;46.604;13.610;2022-12-10T11:01:13;3.00;99.90
40287;DHT22;25998;46.604;13.610;2022-12-10T11:07:58;2.90;99.90
40287;DHT22;25998;46.604;13.610;2022-12-10T11:11:11;2.90;99.90
40287;DHT22;25998;46.604;13.610;2022-12-10T11:14:31;3.00;99.90
40287;DHT22;25998;46.604;13.610;2022-12-10T11:17:57;3.00;99.90
40287;DHT22;25998;46.604;13.610;2022-12-10T11:21:19;3.00;99.90
40287;DHT22;25998;46.604;13.610;2022-12-10T11:24:34;3.00;99.90
40287;DHT22;25998;46.604;13.610;2022-12-10T11:27:58;3.10;99.90
40287;DHT22;25998;46.604;13.610;2022-12-10T11:34:58;3.20;99.90
40287;DHT22;25998;46.604;13.610;2022-12-10T11:38:31;3.30;99.90
40287;DHT22;25998;46.604;13.610;2022-12-10T11:42:08;3.20;99.90
40287;DHT22;25998;46.604;13.610;2022-12-10T11:45:30;3.20;99.90
40287;DHT22;25998;46.604;13.610;2022-12-10T11:52:44;3.30;99.90
40287;DHT22;25998;46.604;13.610;2022-12-10T11:56:09;3.40;99.90
40287;DHT22;25998;46.604;13.610;2022-12-10T11:59:46;3.30;99.90
40287;DHT22;25998;46.604;13.610;2022-12-10T12:03:18;3.30;99.90
40287;DHT22;25998;46.604;13.610;2022-12-10T12:17:27;3.30;99.90
40287;DHT22;25998;46.604;13.610;2022-12-10T12:20:59;3.30;99.90
40287;DHT22;25998;46.604;13.610;2022-12-10T12:24:32;3.30;99.90
40287;DHT22;25998;46.604;13.610;2022-12-10T12:31:25;3.30;99.90
40287;DHT22;25998;46.604;13.610;2022-12-10T12:38:03;3.30;99.90
40287;DHT22;25998;46.604;13.610;2022-12-10T12:41:46;3.30;99.90
40287;DHT22;25998;46.604;13.610;2022-12-10T12:45:21;3.30;99.90
40287;DHT22;25998;46.604;13.610;2022-12-10T12:48:56;3.30;99.90
40287;DHT22;25998;46.604;13.610;2022-12-10T12:52:19;3.20;99.90
40287;DHT22;25998;46.604;13.610;2022-12-10T13:05:31;3.30;99.90
40287;DHT22;25998;46.604;13.610;2022-12-10T13:09:33;3.40;99.90
40287;DHT22;25998;46.604;13.610;2022-12-10T13:12:44;3.40;99.90
40287;DHT22;25998;46.604;13.610;2022-12-10T13:15:56;3.30;99.90
40287;DHT22;25998;46.604;13.610;2022-12-10T13:19:31;3.20;99.90
40287;DHT22;25998;46.604;13.610;2022-12-10T13:22:59;3.30;99.90
40287;DHT22;25998;46.604;13.610;2022-12-10T13:26:27;3.30;99.90
40287;DHT22;25998;46.604;13.610;2022-12-10T13:30:01;3.30;99.90
40287;DHT22;25998;46.604;13.610;2022-12-10T13:33:18;3.30;99.90
40287;DHT22;25998;46.604;13.610;2022-12-10T13:39:59;3.40;99.90
40287;DHT22;25998;46.604;13.610;2022-12-10T13:47:26;3.40;99.90
40287;DHT22;25998;46.604;13.610;2022-12-10T13:51:08;3.50;99.90
40287;DHT22;25998;46.604;13.610;2022-12-10T13:54:57;3.50;99.90
40287;DHT22;25998;46.604;13.610;2022-12-10T13:58:26;3.30;99.90
40287;DHT22;25998;46.604;13.610;2022-12-10T14:09:06;3.40;99.90
40287;DHT22;25998;46.604;13.610;2022-12-10T14:12:38;3.40;99.90
40287;DHT22;25998;46.604;13.610;2022-12-10T14:16:02;3.40;99.90
40287;DHT22;25998;46.604;13.610;2022-12-10T14:19:17;3.50;99.90
40287;DHT22;25998;46.604;13.610;2022-12-10T14:26:46;3.50;99.90
40287;DHT22;25998;46.604;13.610;2022-12-10T14:30:14;3.40;99.90
40287;DHT22;25998;46.604;13.610;2022-12-10T14:33:28;3.20;99.90
40287;DHT22;25998;46.604;13.610;2022-12-10T14:36:45;3.20;99.90
40287;DHT22;25998;46.604;13.610;2022-12-10T14:39:57;3.20;99.90
40287;DHT22;25998;46.604;13.610;2022-12-10T14:43:18;3.40;99.90
40287;DHT22;25998;46.604;13.610;2022-12-10T14:46:31;3.30;99.90
40287;DHT22;25998;46.604;13.610;2022-12-10T14:49:48;3.40;99.90
40287;DHT22;25998;46.604;13.610;2022-12-10T14:53:00;3.60;99.90
40287;DHT22;25998;46.604;13.610;2022-12-10T14:56:25;3.80;99.90
40287;DHT22;25998;46.604;13.610;2022-12-10T14:59:47;3.80;99.90
40287;DHT22;25998;46.604;13.610;2022-12-10T15:03:06;3.60;99.90
40287;DHT22;25998;46.604;13.610;2022-12-10T15:06:18;3.60;99.90
40287;DHT22;25998;46.604;13.610;2022-12-10T15:09:30;3.70;99.90
40287;DHT22;25998;46.604;13.610;2022-12-10T15:12:47;3.70;99.90
40287;DHT22;25998;46.604;13.610;2022-12-10T15:16:00;3.80;99.90
40287;DHT22;25998;46.604;13.610;2022-12-10T15:22:30;3.40;99.90
40287;DHT22;25998;46.604;13.610;2022-12-10T15:25:45;3.40;99.90
40287;DHT22;25998;46.604;13.610;2022-12-10T15:32:39;3.70;99.90
40287;DHT22;25998;46.604;13.610;2022-12-10T15:37:01;3.70;99.90
40287;DHT22;25998;46.604;13.610;2022-12-10T15:39:51;3.70;99.90
40287;DHT22;25998;46.604;13.610;2022-12-10T15:43:29;3.60;99.90
40287;DHT22;25998;46.604;13.610;2022-12-10T15:46:50;3.40;99.90
40287;DHT22;25998;46.604;13.610;2022-12-10T15:54:36;3.20;99.90
40287;DHT22;25998;46.604;13.610;2022-12-10T15:57:47;3.30;99.90
40287;DHT22;25998;46.604;13.610;2022-12-10T16:01:01;3.20;99.90
40287;DHT22;25998;46.604;13.610;2022-12-10T16:04:12;3.20;99.90
40287;DHT22;25998;46.604;13.610;2022-12-10T16:07:26;3.20;99.90
40287;DHT22;25998;46.604;13.610;2022-12-10T16:10:37;3.20;99.90
40287;DHT22;25998;46.604;13.610;2022-12-10T16:13:54;3.20;99.90
40287;DHT22;25998;46.604;13.610;2022-12-10T16:17:07;3.20;99.90
40287;DHT22;25998;46.604;13.610;2022-12-10T16:20:29;3.20;99.90
40287;DHT22;25998;46.604;13.610;2022-12-10T16:23:40;3.10;99.90
40287;DHT22;25998;46.604;13.610;2022-12-10T16:26:51;3.10;99.90
40287;DHT22;25998;46.604;13.610;2022-12-10T16:30:18;3.10;99.90
40287;DHT22;25998;46.604;13.610;2022-12-10T16:33:30;3.00;99.90
40287;DHT22;25998;46.604;13.610;2022-12-10T16:36:40;3.00;99.90
40287;DHT22;25998;46.604;13.610;2022-12-10T16:39:51;3.00;99.90
40287;DHT22;25998;46.604;13.610;2022-12-10T16:43:02;3.00;99.90
40287;DHT22;25998;46.604;13.610;2022-12-10T16:46:14;3.00;99.90
40287;DHT22;25998;46.604;13.610;2022-12-10T16:49:25;3.00;99.90
40287;DHT22;25998;46.604;13.610;2022-12-10T16:52:35;3.00;99.90
40287;DHT22;25998;46.604;13.610;2022-12-10T16:55:46;2.90;99.90
40287;DHT22;25998;46.604;13.610;2022-12-10T16:59:00;2.90;99.90
40287;DHT22;25998;46.604;13.610;2022-12-10T17:02:16;2.90;99.90
40287;DHT22;25998;46.604;13.610;2022-12-10T17:05:40;2.80;99.90
40287;DHT22;25998;46.604;13.610;2022-12-10T17:08:53;2.80;99.90
40287;DHT22;25998;46.604;13.610;2022-12-10T17:12:06;2.80;99.90
40287;DHT22;25998;46.604;13.610;2022-12-10T17:15:17;2.80;99.90
40287;DHT22;25998;46.604;13.610;2022-12-10T17:18:28;2.90;99.90
40287;DHT22;25998;46.604;13.610;2022-12-10T17:21:39;3.10;99.90
40287;DHT22;25998;46.604;13.610;2022-12-10T17:24:50;3.00;99.90
40287;DHT22;25998;46.604;13.610;2022-12-10T17:28:01;2.90;99.90
40287;DHT22;25998;46.604;13.610;2022-12-10T17:31:11;3.00;99.90
40287;DHT22;25998;46.604;13.610;2022-12-10T17:34:22;3.00;99.90
40287;DHT22;25998;46.604;13.610;2022-12-10T17:37:37;2.90;99.90
40287;DHT22;25998;46.604;13.610;2022-12-10T17:40:48;2.90;99.90
40287;DHT22;25998;46.604;13.610;2022-12-10T17:43:59;2.90;99.90
40287;DHT22;25998;46.604;13.610;2022-12-10T17:47:24;2.90;99.90
40287;DHT22;25998;46.604;13.610;2022-12-10T17:50:36;2.90;99.90
40287;DHT22;25998;46.604;13.610;2022-12-10T17:53:47;3.00;99.90
40287;DHT22;25998;46.604;13.610;2022-12-10T17:56:58;3.00;99.90
40287;DHT22;25998;46.604;13.610;2022-12-10T18:00:14;2.90;99.90
40287;DHT22;25998;46.604;13.610;2022-12-10T18:03:25;3.00;99.90
40287;DHT22;25998;46.604;13.610;2022-12-10T18:06:38;2.90;99.90
40287;DHT22;25998;46.604;13.610;2022-12-10T18:09:49;2.90;99.90
40287;DHT22;25998;46.604;13.610;2022-12-10T18:13:00;3.00;99.90
40287;DHT22;25998;46.604;13.610;2022-12-10T18:16:19;3.00;99.90
40287;DHT22;25998;46.604;13.610;2022-12-10T18:19:31;3.00;99.90
40287;DHT22;25998;46.604;13.610;2022-12-10T18:22:41;3.00;99.90
40287;DHT22;25998;46.604;13.610;2022-12-10T18:25:52;3.00;99.90
40287;DHT22;25998;46.604;13.610;2022-12-10T18:29:04;3.00;99.90
40287;DHT22;25998;46.604;13.610;2022-12-10T18:32:15;3.10;99.90
40287;DHT22;25998;46.604;13.610;2022-12-10T18:35:26;3.10;99.90
40287;DHT22;25998;46.604;13.610;2022-12-10T18:38:43;3.00;99.90
40287;DHT22;25998;46.604;13.610;2022-12-10T18:42:12;2.90;99.90
40287;DHT22;25998;46.604;13.610;2022-12-10T18:45:23;2.90;99.90
40287;DHT22;25998;46.604;13.610;2022-12-10T18:48:33;2.80;99.90
40287;DHT22;25998;46.604;13.610;2022-12-10T18:51:47;2.90;99.90
40287;DHT22;25998;46.604;13.610;2022-12-10T18:54:57;2.90;99.90
40287;DHT22;25998;46.604;13.610;2022-12-10T18:58:09;2.90;99.90
40287;DHT22;25998;46.604;13.610;2022-12-10T19:01:21;2.80;99.90
40287;DHT22;25998;46.604;13.610;2022-12-10T19:04:34;2.80;99.90
40287;DHT22;25998;46.604;13.610;2022-12-10T19:07:46;2.80;99.90
40287;DHT22;25998;46.604;13.610;2022-12-10T19:10:56;2.90;99.90
40287;DHT22;25998;46.604;13.610;2022-12-10T19:14:07;2.90;99.90
40287;DHT22;25998;46.604;13.610;2022-12-10T19:17:18;2.80;99.90
40287;DHT22;25998;46.604;13.610;2022-12-10T19:20:30;2.80;99.90
40287;DHT22;25998;46.604;13.610;2022-12-10T19:23:41;2.80;99.90
40287;DHT22;25998;46.604;13.610;2022-12-10T19:26:52;2.80;99.90
40287;DHT22;25998;46.604;13.610;2022-12-10T19:30:06;2.80;99.90
40287;DHT22;25998;46.604;13.610;2022-12-10T19:33:21;2.80;99.90
40287;DHT22;25998;46.604;13.610;2022-12-10T19:36:33;2.80;99.90
40287;DHT22;25998;46.604;13.610;2022-12-10T19:39:44;2.70;99.90
40287;DHT22;25998;46.604;13.610;2022-12-10T19:42:55;2.70;99.90
40287;DHT22;25998;46.604;13.610;2022-12-10T19:46:19;2.60;99.90
40287;DHT22;25998;46.604;13.610;2022-12-10T19:49:30;2.80;99.90
40287;DHT22;25998;46.604;13.610;2022-12-10T19:52:41;2.70;99.90
40287;DHT22;25998;46.604;13.610;2022-12-10T19:55:52;2.70;99.90
40287;DHT22;25998;46.604;13.610;2022-12-10T19:59:10;2.60;99.90
40287;DHT22;25998;46.604;13.610;2022-12-10T20:02:22;2.50;99.90
40287;DHT22;25998;46.604;13.610;2022-12-10T20:05:33;2.60;99.90
40287;DHT22;25998;46.604;13.610;2022-12-10T20:08:44;2.60;99.90
40287;DHT22;25998;46.604;13.610;2022-12-10T20:11:55;2.70;99.90
40287;DHT22;25998;46.604;13.610;2022-12-10T20:15:07;2.80;99.90
40287;DHT22;25998;46.604;13.610;2022-12-10T20:18:19;2.70;99.90
40287;DHT22;25998;46.604;13.610;2022-12-10T20:21:30;2.70;99.90
40287;DHT22;25998;46.604;13.610;2022-12-10T20:24:40;2.70;99.90
40287;DHT22;25998;46.604;13.610;2022-12-10T20:27:53;2.70;99.90
40287;DHT22;25998;46.604;13.610;2022-12-10T20:31:06;2.60;99.90
40287;DHT22;25998;46.604;13.610;2022-12-10T20:34:17;2.60;99.90
40287;DHT22;25998;46.604;13.610;2022-12-10T20:37:28;2.70;99.90
40287;DHT22;25998;46.604;13.610;2022-12-10T20:40:39;2.60;99.90
40287;DHT22;25998;46.604;13.610;2022-12-10T20:43:50;2.60;99.90
40287;DHT22;25998;46.604;13.610;2022-12-10T20:47:01;2.50;99.90
40287;DHT22;25998;46.604;13.610;2022-12-10T20:50:17;2.60;99.90
40287;DHT22;25998;46.604;13.610;2022-12-10T20:53:28;2.60;99.90
40287;DHT22;25998;46.604;13.610;2022-12-10T20:56:39;2.50;99.90
40287;DHT22;25998;46.604;13.610;2022-12-10T20:59:50;2.60;99.90
40287;DHT22;25998;46.604;13.610;2022-12-10T21:03:01;2.60;99.90
40287;DHT22;25998;46.604;13.610;2022-12-10T21:06:18;2.70;99.90
40287;DHT22;25998;46.604;13.610;2022-12-10T21:09:29;2.70;99.90
40287;DHT22;25998;46.604;13.610;2022-12-10T21:12:40;2.60;99.90
40287;DHT22;25998;46.604;13.610;2022-12-10T21:15:51;2.80;99.90
40287;DHT22;25998;46.604;13.610;2022-12-10T21:19:05;2.80;99.90
40287;DHT22;25998;46.604;13.610;2022-12-10T21:22:16;2.80;99.90
40287;DHT22;25998;46.604;13.610;2022-12-10T21:25:27;2.80;99.90
40287;DHT22;25998;46.604;13.610;2022-12-10T21:28:38;2.70;99.90
40287;DHT22;25998;46.604;13.610;2022-12-10T21:31:49;2.70;99.90
40287;DHT22;25998;46.604;13.610;2022-12-10T21:35:00;2.80;99.90
40287;DHT22;25998;46.604;13.610;2022-12-10T21:38:11;2.80;99.90
40287;DHT22;25998;46.604;13.610;2022-12-10T21:41:24;2.70;99.90
40287;DHT22;25998;46.604;13.610;2022-12-10T21:44:54;2.70;99.90
40287;DHT22;25998;46.604;13.610;2022-12-10T21:48:05;2.60;99.90
40287;DHT22;25998;46.604;13.610;2022-12-10T21:51:16;2.80;99.90
40287;DHT22;25998;46.604;13.610;2022-12-10T21:54:27;2.80;99.90
40287;DHT22;25998;46.604;13.610;2022-12-10T21:57:41;2.60;99.90
40287;DHT22;25998;46.604;13.610;2022-12-10T22:00:56;2.70;99.90
40287;DHT22;25998;46.604;13.610;2022-12-10T22:04:07;2.70;99.90
40287;DHT22;25998;46.604;13.610;2022-12-10T22:07:18;2.60;99.90
40287;DHT22;25998;46.604;13.610;2022-12-10T22:10:28;2.80;99.90
40287;DHT22;25998;46.604;13.610;2022-12-10T22:13:39;2.70;99.90
40287;DHT22;25998;46.604;13.610;2022-12-10T22:16:50;2.60;99.90
40287;DHT22;25998;46.604;13.610;2022-12-10T22:20:02;2.80;99.90
40287;DHT22;25998;46.604;13.610;2022-12-10T22:23:14;2.80;99.90
40287;DHT22;25998;46.604;13.610;2022-12-10T22:26:26;2.90;99.90